Time;durP1;ratioP1;P1;durP2;ratioP2;P2;SDS_P1;SDS_P2;PMS_P1;PMS_P2;Temp;Humidity;BMP_temperature;BMP_pressure;BME280_temperature;BME280_humidity;BME280_pressure;Samples;Min_cycle;Max_cycle;Signal;HPM_P1;HPM_P2
2022/08/17 00:02:19;;;;;;;;;;;;;;;31.22;30.53;98520.03;4515427;31;34164;-83
2022/08/17 00:04:53;;;;;;;;;;;;;;;31.37;30.37;98520.63;4514636;31;34086;-83
2022/08/17 00:07:21;;;;;;;;;;;;;;;31.32;30.36;98514.78;4515612;31;34284;-83
2022/08/17 00:09:48;;;;;;;;;;;;;;;31.16;30.52;98515.19;4514639;31;33865;-84
2022/08/17 00:12:16;;;;;;;;;;;;;;;31.23;30.34;98513.69;4515948;31;34292;-83
2022/08/17 00:15:03;;;;;;;;;;;;;;;31.30;30.24;98514.09;4515433;31;34105;-83
2022/08/17 00:17:31;;;;;;;;;;;;;;;31.31;30.31;98518.47;4514539;31;34520;-83
2022/08/17 00:19:58;;;;;;;;;;;;;;;31.09;30.64;98508.63;4515758;31;34863;-83
2022/08/17 00:22:28;;;;;;;;;;;;;;;30.85;31.17;98513.31;4515700;31;33956;-83
2022/08/17 00:25:04;;;;;;;;;;;;;;;30.49;31.81;98510.75;4515871;31;34162;-83
2022/08/17 00:27:32;;;;;;;;;;;;;;;31.00;31.07;98509.38;4515637;31;35765;-84
2022/08/17 00:29:59;;;;;;;;;;;;;;;31.01;31.12;98514.59;4515859;31;34113;-83
2022/08/17 00:32:27;;;;;;;;;;;;;;;30.87;31.13;98511.34;4515691;31;33565;-83
2022/08/17 00:35:16;;;;;;;;;;;;;;;31.01;30.93;98511.09;4515680;31;34117;-83
2022/08/17 00:37:43;;;;;;;;;;;;;;;31.04;30.78;98512.69;4515570;31;35275;-84
2022/08/17 00:40:11;;;;;;;;;;;;;;;31.14;30.50;98511.78;4515766;31;35270;-83
2022/08/17 00:42:39;;;;;;;;;;;;;;;31.07;30.68;98518.62;4514403;31;34213;-83
2022/08/17 00:45:08;;;;;;;;;;;;;;;31.17;30.52;98510.66;4499206;31;35110;-83
2022/08/17 00:47:35;;;;;;;;;;;;;;;31.15;30.56;98515.31;4499876;31;34522;-84
2022/08/17 00:50:03;;;;;;;;;;;;;;;31.06;30.76;98519.59;4499747;31;34540;-83
2022/08/17 00:52:34;;;;;;;;;;;;;;;30.96;31.01;98514.16;4499771;31;33713;-83
2022/08/17 00:55:02;;;;;;;;;;;;;;;30.97;31.00;98512.31;4498813;31;33741;-82
2022/08/17 00:57:30;;;;;;;;;;;;;;;30.96;31.05;98514.16;4488159;31;34034;-83
2022/08/17 01:00:00;;;;;;;;;;;;;;;30.95;31.08;98519.59;4500857;31;33923;-83
2022/08/17 01:02:32;;;;;;;;;;;;;;;30.97;31.08;98520.34;4501380;31;34224;-84
2022/08/17 01:05:09;;;;;;;;;;;;;;;30.87;31.11;98517.56;4500891;31;33697;-83
2022/08/17 01:07:36;;;;;;;;;;;;;;;30.78;31.44;98516.47;4500668;31;34923;-84
2022/08/17 01:10:04;;;;;;;;;;;;;;;30.57;31.79;98523.50;4501254;31;34322;-83
2022/08/17 01:12:33;;;;;;;;;;;;;;;30.62;31.83;98526.69;4515541;31;34111;-84
2022/08/17 01:15:00;;;;;;;;;;;;;;;30.22;32.69;98528.97;4515520;31;33921;-83
2022/08/17 01:17:27;;;;;;;;;;;;;;;30.38;32.42;98524.13;4515446;31;34965;-83
2022/08/17 01:19:55;;;;;;;;;;;;;;;30.41;32.40;98529.22;4501276;31;34467;-83
2022/08/17 01:22:23;;;;;;;;;;;;;;;30.60;32.13;98530.44;4515635;31;33579;-84
2022/08/17 01:25:01;;;;;;;;;;;;;;;30.02;33.18;98534.03;4501286;31;33960;-83
2022/08/17 01:27:28;;;;;;;;;;;;;;;30.15;32.94;98528.56;4515045;31;34367;-83
2022/08/17 01:29:57;;;;;;;;;;;;;;;30.57;32.13;98534.22;4501185;31;34564;-83
2022/08/17 01:32:25;;;;;;;;;;;;;;;30.65;31.86;98529.13;4501363;31;33814;-83
2022/08/17 01:34:52;;;;;;;;;;;;;;;30.64;31.76;98534.59;4515008;31;34022;-83
2022/08/17 01:37:20;;;;;;;;;;;;;;;30.61;31.72;98540.16;4515632;31;34000;-83
2022/08/17 01:39:49;;;;;;;;;;;;;;;30.54;31.85;98532.66;4515307;31;35028;-83
2022/08/17 01:42:29;;;;;;;;;;;;;;;30.61;31.68;98537.50;4500561;31;33550;-84
2022/08/17 01:44:57;;;;;;;;;;;;;;;30.47;31.92;98534.09;4515481;31;34311;-84
2022/08/17 01:47:25;;;;;;;;;;;;;;;30.49;31.93;98534.81;4515064;31;35342;-83
2022/08/17 01:49:55;;;;;;;;;;;;;;;30.67;31.50;98545.03;4515093;31;34291;-83
2022/08/17 01:52:22;;;;;;;;;;;;;;;30.38;31.96;98529.47;4515277;31;33029;-83
2022/08/17 01:54:50;;;;;;;;;;;;;;;30.11;32.61;98542.28;4514943;31;33937;-83
2022/08/17 01:57:17;;;;;;;;;;;;;;;30.04;32.73;98540.13;4500615;31;33343;-83
2022/08/17 01:59:44;;;;;;;;;;;;;;;30.24;32.37;98538.59;4515000;31;34932;-83
2022/08/17 02:02:12;;;;;;;;;;;;;;;30.33;32.21;98531.66;4514909;31;32848;-83
2022/08/17 02:04:57;;;;;;;;;;;;;;;30.27;32.25;98535.69;4514692;31;35088;-83
2022/08/17 02:07:24;;;;;;;;;;;;;;;30.38;32.05;98534.81;4514742;31;34992;-83
2022/08/17 02:09:53;;;;;;;;;;;;;;;30.45;31.82;98533.34;4514731;31;34945;-83
2022/08/17 02:12:21;;;;;;;;;;;;;;;30.45;31.84;98528.00;4514668;31;33238;-83
2022/08/17 02:15:11;;;;;;;;;;;;;;;30.44;31.96;98530.81;4514988;31;35064;-83
2022/08/17 02:17:39;;;;;;;;;;;;;;;30.47;32.19;98523.41;4514769;31;35180;-83
2022/08/17 02:20:08;;;;;;;;;;;;;;;30.38;32.57;98525.94;4513931;31;34537;-83
2022/08/17 02:22:35;;;;;;;;;;;;;;;30.49;32.47;98517.91;4515159;31;34105;-83
2022/08/17 02:25:03;;;;;;;;;;;;;;;30.53;32.63;98520.25;4500829;31;33761;-83
2022/08/17 02:27:31;;;;;;;;;;;;;;;30.52;32.84;98523.03;4514487;31;34425;-83
2022/08/17 02:29:58;;;;;;;;;;;;;;;30.56;32.89;98518.28;4512614;31;34802;-83
2022/08/17 02:32:26;;;;;;;;;;;;;;;30.56;32.94;98523.66;4514816;31;33937;-83
2022/08/17 02:34:55;;;;;;;;;;;;;;;30.58;32.91;98521.72;4500578;31;34006;-83
2022/08/17 02:37:23;;;;;;;;;;;;;;;30.51;33.04;98522.19;4514827;31;34302;-83
2022/08/17 02:39:50;;;;;;;;;;;;;;;30.44;33.23;98529.00;4514852;31;35047;-83
2022/08/17 02:42:18;;;;;;;;;;;;;;;30.49;33.27;98525.94;4500112;31;33191;-83
2022/08/17 02:44:45;;;;;;;;;;;;;;;30.53;33.23;98522.06;4500263;31;34172;-83
2022/08/17 02:47:12;;;;;;;;;;;;;;;30.47;33.30;98526.09;4514588;31;34358;-83
2022/08/17 02:49:40;;;;;;;;;;;;;;;30.43;33.45;98526.44;4514305;31;34327;-82
2022/08/17 02:52:22;;;;;;;;;;;;;;;30.35;33.62;98523.53;4514844;31;33530;-83
2022/08/17 02:55:29;;;;;;;;;;;;;;;30.44;33.48;98523.66;4489463;31;33069;-83
2022/08/17 02:57:57;;;;;;;;;;;;;;;30.37;33.51;98517.06;4514551;31;34077;-83
2022/08/17 03:00:27;;;;;;;;;;;;;;;30.26;33.68;98517.06;4514176;31;33959;-83
2022/08/17 03:02:55;;;;;;;;;;;;;;;30.39;33.27;98519.66;4514509;31;34169;-83
2022/08/17 03:05:23;;;;;;;;;;;;;;;30.27;33.48;98527.66;4514125;31;34138;-83
2022/08/17 03:07:50;;;;;;;;;;;;;;;30.41;33.29;98521.22;4514351;31;34182;-83
2022/08/17 03:10:18;;;;;;;;;;;;;;;30.26;33.55;98530.44;4499677;31;35234;-83
2022/08/17 03:12:46;;;;;;;;;;;;;;;30.06;33.87;98540.84;4514064;31;33844;-83
2022/08/17 03:15:14;;;;;;;;;;;;;;;30.17;33.70;98533.84;4514176;31;33769;-83
2022/08/17 03:17:41;;;;;;;;;;;;;;;30.20;33.66;98529.09;4513828;31;34202;-83
2022/08/17 03:20:09;;;;;;;;;;;;;;;30.21;33.59;98535.31;4513965;31;35152;-83
2022/08/17 03:22:37;;;;;;;;;;;;;;;30.19;33.62;98534.56;4514383;31;33301;-83
2022/08/17 03:25:05;;;;;;;;;;;;;;;29.97;33.96;98535.34;4514064;31;34756;-83
2022/08/17 03:27:37;;;;;;;;;;;;;;;29.96;33.93;98534.47;4500287;31;35047;-83
2022/08/17 03:30:09;;;;;;;;;;;;;;;29.94;33.92;98531.09;4500857;31;34764;-83
2022/08/17 03:32:37;;;;;;;;;;;;;;;30.12;33.45;98535.97;4516342;31;33181;-83
2022/08/17 03:35:05;;;;;;;;;;;;;;;30.23;33.27;98542.25;4516006;31;33850;-83
2022/08/17 03:37:32;;;;;;;;;;;;;;;30.11;33.49;98537.78;4516390;31;34986;-83
2022/08/17 03:40:00;;;;;;;;;;;;;;;30.04;33.51;98529.41;4516416;31;34986;-83
2022/08/17 03:42:27;;;;;;;;;;;;;;;29.97;33.65;98538.88;4516239;31;34198;-83
2022/08/17 03:44:59;;;;;;;;;;;;;;;30.06;33.40;98535.47;4516230;31;34096;-83
2022/08/17 03:58:31;;;;;;;;;;;;;;;30.13;33.59;98548.38;4515824;31;34495;-83
2022/08/17 04:00:58;;;;;;;;;;;;;;;30.07;33.75;98547.03;4515874;31;34486;-83
2022/08/17 04:03:26;;;;;;;;;;;;;;;30.16;33.49;98550.81;4515974;31;32731;-83
2022/08/17 04:05:53;;;;;;;;;;;;;;;30.18;33.39;98546.22;4515778;31;34267;-83
2022/08/17 04:08:20;;;;;;;;;;;;;;;29.98;33.76;98547.75;4515746;31;35141;-84
2022/08/17 04:10:48;;;;;;;;;;;;;;;30.18;33.45;98556.94;4515767;31;34715;-83
2022/08/17 04:13:15;;;;;;;;;;;;;;;30.13;33.54;98556.41;4514425;31;33849;-83
2022/08/17 04:15:51;;;;;;;;;;;;;;;30.13;33.54;98561.75;4515665;31;34341;-83
2022/08/17 04:18:18;;;;;;;;;;;;;;;29.96;33.83;98561.22;4515782;31;35129;-83
2022/08/17 04:20:45;;;;;;;;;;;;;;;30.06;33.80;98562.22;4515884;31;34331;-83
2022/08/17 04:23:14;;;;;;;;;;;;;;;29.87;34.18;98566.41;4499854;31;34401;-83
2022/08/17 04:25:43;;;;;;;;;;;;;;;29.93;34.11;98561.47;4499735;31;34036;-83
2022/08/17 04:28:10;;;;;;;;;;;;;;;30.14;33.80;98568.78;4500145;31;33672;-83
2022/08/17 04:30:43;;;;;;;;;;;;;;;30.27;33.72;98559.75;4499892;31;35647;-83
2022/08/17 04:33:12;;;;;;;;;;;;;;;30.36;33.69;98568.87;4500229;31;33205;-83
2022/08/17 04:35:41;;;;;;;;;;;;;;;30.70;33.41;98568.87;4500650;31;34423;-83
2022/08/17 04:38:10;;;;;;;;;;;;;;;31.31;32.44;98566.66;4515362;31;34194;-83
2022/08/17 04:43:25;;;;;;;;;;;;;;;31.85;31.62;98575.59;4514092;31;33524;-83
2022/08/17 04:45:53;;;;;;;;;;;;;;;32.38;30.94;98572.88;4514377;31;33898;-83
2022/08/17 04:48:27;;;;;;;;;;;;;;;32.84;30.14;98566.19;4514261;31;34288;-83
2022/08/17 04:51:08;;;;;;;;;;;;;;;33.06;29.69;98562.47;4513801;31;34892;-83
2022/08/17 04:53:36;;;;;;;;;;;;;;;33.40;29.53;98571.88;4515682;31;34174;-83
2022/08/17 04:56:04;;;;;;;;;;;;;;;33.40;29.49;98574.56;4515281;31;34328;-83
2022/08/17 04:58:31;;;;;;;;;;;;;;;32.79;30.58;98571.97;4515508;31;34179;-83
2022/08/17 05:00:58;;;;;;;;;;;;;;;33.57;29.97;98577.59;4515709;31;34380;-83
2022/08/17 05:03:26;;;;;;;;;;;;;;;33.57;29.65;98580.28;4515814;31;33303;-83
2022/08/17 05:05:53;;;;;;;;;;;;;;;33.65;29.28;98585.81;4514988;31;34116;-83
2022/08/17 05:08:20;;;;;;;;;;;;;;;33.43;29.59;98582.34;4515777;31;33857;-83
2022/08/17 05:10:48;;;;;;;;;;;;;;;33.49;29.93;98588.16;4515319;31;34263;-82
2022/08/17 05:13:17;;;;;;;;;;;;;;;34.32;28.96;98584.94;4515539;31;33207;-83
2022/08/17 05:15:45;;;;;;;;;;;;;;;34.97;27.53;98589.53;4514577;31;34343;-83
2022/08/17 05:18:14;;;;;;;;;;;;;;;34.84;27.36;98588.00;4515657;31;35290;-83
2022/08/17 05:20:42;;;;;;;;;;;;;;;34.35;28.70;98595.38;4515355;31;35082;-82
2022/08/17 05:23:11;;;;;;;;;;;;;;;34.12;28.94;98594.00;4513911;31;33388;-83
2022/08/17 05:25:39;;;;;;;;;;;;;;;32.83;30.30;98594.88;4515562;31;33847;-83
2022/08/17 05:28:07;;;;;;;;;;;;;;;32.72;30.59;98592.28;4515480;31;35027;-83
2022/08/17 05:30:35;;;;;;;;;;;;;;;32.19;31.39;98606.63;4514197;31;34658;-83
2022/08/17 05:33:04;;;;;;;;;;;;;;;32.26;31.76;98601.59;4514156;31;33533;-83
2022/08/17 05:35:32;;;;;;;;;;;;;;;32.16;32.04;98596.19;4514930;31;35716;-82
2022/08/17 05:38:00;;;;;;;;;;;;;;;31.23;33.30;98607.44;4515510;31;34645;-83
2022/08/17 05:40:28;;;;;;;;;;;;;;;31.87;32.59;98603.16;4515030;31;34530;-83
2022/08/17 05:43:03;;;;;;;;;;;;;;;32.18;32.22;98609.47;4515175;31;33505;-83
2022/08/17 05:45:31;;;;;;;;;;;;;;;32.13;31.92;98609.84;4513934;31;34775;-83
2022/08/17 05:48:18;;;;;;;;;;;;;;;32.32;31.78;98600.25;4514420;31;34457;-83
2022/08/17 05:50:45;;;;;;;;;;;;;;;32.18;32.22;98610.31;4515174;31;34035;-83
2022/08/17 05:53:25;;;;;;;;;;;;;;;32.98;31.55;98607.97;4513815;31;34350;-83
2022/08/17 05:55:59;;;;;;;;;;;;;;;32.36;31.89;98607.88;4513391;31;34901;-83
2022/08/17 05:58:30;;;;;;;;;;;;;;;33.53;30.57;98608.44;4513879;31;34172;-83
2022/08/17 06:00:57;;;;;;;;;;;;;;;32.92;31.61;98599.44;4515183;31;34711;-83
2022/08/17 06:03:25;;;;;;;;;;;;;;;32.73;31.50;98610.06;4515031;31;33107;-83
2022/08/17 06:06:07;;;;;;;;;;;;;;;33.62;30.10;98604.88;4515184;31;34276;-83
2022/08/17 06:08:44;;;;;;;;;;;;;;;33.82;29.56;98606.59;4515202;31;35350;-83
2022/08/17 06:11:36;;;;;;;;;;;;;;;34.19;28.67;98611.28;4514960;31;34077;-83
2022/08/17 06:14:06;;;;;;;;;;;;;;;34.03;28.46;98602.94;4513840;31;33440;-83
2022/08/17 06:16:35;;;;;;;;;;;;;;;34.10;27.97;98606.78;4515106;31;34166;-83
2022/08/17 06:19:10;;;;;;;;;;;;;;;34.20;27.65;98604.03;4513617;31;34132;-83
2022/08/17 06:21:40;;;;;;;;;;;;;;;33.64;28.44;98613.66;4514108;31;33872;-83
2022/08/17 06:24:15;;;;;;;;;;;;;;;33.16;29.17;98606.34;4502289;31;34136;-83
2022/08/17 06:26:44;;;;;;;;;;;;;;;33.62;29.20;98613.78;4498953;31;34060;-82
2022/08/17 06:29:16;;;;;;;;;;;;;;;33.93;28.04;98610.97;4498052;31;34378;-82
2022/08/17 06:31:45;;;;;;;;;;;;;;;34.30;27.74;98616.50;4498715;31;34418;-82
2022/08/17 06:34:12;;;;;;;;;;;;;;;34.14;28.43;98613.56;4509391;31;33773;-83
2022/08/17 06:36:58;;;;;;;;;;;;;;;34.54;27.56;98609.81;4514847;31;33993;-82
2022/08/17 06:39:26;;;;;;;;;;;;;;;34.13;28.17;98620.78;4514644;31;35468;-82
2022/08/17 06:41:59;;;;;;;;;;;;;;;34.11;27.75;98619.22;4515125;31;35018;-83
2022/08/17 06:44:34;;;;;;;;;;;;;;;34.54;27.10;98620.56;4514385;31;33464;-81
2022/08/17 06:47:24;;;;;;;;;;;;;;;34.69;27.15;98627.19;4499513;31;34057;-81
2022/08/17 06:50:04;;;;;;;;;;;;;;;33.80;28.34;98627.41;4511247;31;34390;-80
2022/08/17 06:52:33;;;;;;;;;;;;;;;34.31;28.11;98631.63;4497307;31;34094;-80
2022/08/17 06:55:16;;;;;;;;;;;;;;;34.48;28.58;98635.44;4498749;31;34178;-81
2022/08/17 06:57:46;;;;;;;;;;;;;;;33.90;28.98;98633.62;4498216;31;35120;-80
2022/08/17 07:00:17;;;;;;;;;;;;;;;34.65;28.17;98628.47;4505736;31;34230;-82
2022/08/17 07:02:54;;;;;;;;;;;;;;;34.31;29.18;98630.78;4503286;31;34997;-82
2022/08/17 07:05:23;;;;;;;;;;;;;;;34.23;29.14;98634.22;4506363;31;33832;-82
2022/08/17 07:08:02;;;;;;;;;;;;;;;34.79;28.04;98635.25;4502113;31;34391;-82
2022/08/17 07:10:31;;;;;;;;;;;;;;;35.09;28.00;98631.47;4501613;31;35359;-82
2022/08/17 07:13:10;;;;;;;;;;;;;;;34.76;28.03;98631.00;4501320;31;34178;-82
2022/08/17 07:15:41;;;;;;;;;;;;;;;34.63;28.19;98630.50;4505075;31;33517;-82
2022/08/17 07:18:08;;;;;;;;;;;;;;;35.30;27.59;98629.34;4517141;31;33895;-81
2022/08/17 07:20:36;;;;;;;;;;;;;;;34.98;27.99;98634.31;4518922;31;35181;-82
2022/08/17 07:23:16;;;;;;;;;;;;;;;35.38;27.35;98635.84;4517990;31;34217;-82
2022/08/17 07:25:43;;;;;;;;;;;;;;;35.62;27.50;98629.91;4516462;31;33441;-82
2022/08/17 07:28:11;;;;;;;;;;;;;;;35.90;26.95;98634.22;4516215;31;33880;-84
2022/08/17 07:30:40;;;;;;;;;;;;;;;35.75;26.69;98628.53;4517408;31;32488;-82
2022/08/17 07:33:16;;;;;;;;;;;;;;;36.08;26.22;98636.13;4509582;31;34811;-81
2022/08/17 07:35:43;;;;;;;;;;;;;;;35.44;27.24;98630.69;4512452;31;33152;-82
2022/08/17 07:38:21;;;;;;;;;;;;;;;35.79;26.05;98629.06;4518846;31;34332;-81
2022/08/17 07:41:01;;;;;;;;;;;;;;;35.37;27.06;98634.16;4519051;31;34152;-81
2022/08/17 07:43:38;;;;;;;;;;;;;;;34.21;28.29;98636.22;4518871;31;34791;-82
2022/08/17 07:49:06;;;;;;;;;;;;;;;34.26;28.40;98639.31;4502711;31;34983;-81
2022/08/17 07:51:42;;;;;;;;;;;;;;;33.75;28.59;98632.34;4502371;31;35154;-82
2022/08/17 07:54:22;;;;;;;;;;;;;;;34.53;27.49;98635.03;4506963;31;34143;-82
2022/08/17 07:56:51;;;;;;;;;;;;;;;35.24;27.76;98640.75;4514927;31;33136;-83
2022/08/17 07:59:22;;;;;;;;;;;;;;;35.66;25.72;98636.69;4517622;31;33496;-84
2022/08/17 08:01:53;;;;;;;;;;;;;;;35.89;26.94;98640.62;4518333;31;34306;-82
2022/08/17 08:04:28;;;;;;;;;;;;;;;35.36;26.37;98643.25;4517795;31;34363;-84
2022/08/17 08:07:15;;;;;;;;;;;;;;;35.38;26.23;98641.22;4513670;31;33093;-82
2022/08/17 08:09:44;;;;;;;;;;;;;;;35.12;26.01;98641.97;4517978;31;33974;-81
2022/08/17 08:12:20;;;;;;;;;;;;;;;35.55;25.64;98643.16;4516970;31;34465;-83
2022/08/17 08:14:56;;;;;;;;;;;;;;;35.49;26.38;98639.19;4515052;31;34286;-85
2022/08/17 08:17:25;;;;;;;;;;;;;;;34.71;26.39;98638.69;4514894;31;33375;-81
2022/08/17 08:19:52;;;;;;;;;;;;;;;35.34;25.73;98636.13;4515383;31;34235;-82
2022/08/17 08:22:21;;;;;;;;;;;;;;;35.58;25.32;98637.47;4515380;31;35064;-81
2022/08/17 08:24:51;;;;;;;;;;;;;;;34.94;26.04;98632.94;4513731;31;34946;-83
2022/08/17 08:27:24;;;;;;;;;;;;;;;35.21;25.62;98635.66;4515524;31;33073;-82
2022/08/17 08:29:54;;;;;;;;;;;;;;;34.69;26.74;98637.13;4515233;31;35054;-80
2022/08/17 08:32:41;;;;;;;;;;;;;;;34.97;26.06;98636.19;4515682;31;34205;-82
2022/08/17 08:35:12;;;;;;;;;;;;;;;34.86;26.13;98637.22;4515641;31;34826;-80
2022/08/17 08:37:39;;;;;;;;;;;;;;;35.49;25.21;98628.41;4514565;31;33283;-82
2022/08/17 08:40:22;;;;;;;;;;;;;;;35.45;25.10;98639.63;4515451;31;35763;-81
2022/08/17 08:42:59;;;;;;;;;;;;;;;36.42;24.26;98641.63;4515695;31;35863;-81
2022/08/17 08:45:37;;;;;;;;;;;;;;;36.21;24.15;98636.56;4514912;31;34752;-80
2022/08/17 08:48:36;;;;;;;;;;;;;;;35.55;24.52;98638.59;4515748;31;33531;-81
2022/08/17 08:51:27;;;;;;;;;;;;;;;36.66;23.18;98625.59;4489027;31;35097;-81
2022/08/17 08:53:57;;;;;;;;;;;;;;;36.85;22.52;98631.78;4508011;31;33673;-82
2022/08/17 08:56:43;;;;;;;;;;;;;;;36.27;21.10;98634.06;4499556;31;34185;-82
2022/08/17 08:59:49;;;;;;;;;;;;;;;35.96;21.93;98630.09;4498720;31;33014;-81
2022/08/17 09:02:30;;;;;;;;;;;;;;;35.96;23.39;98632.78;4506907;31;34170;-81
2022/08/17 09:05:19;;;;;;;;;;;;;;;36.12;23.08;98634.81;4515235;31;34407;-81
2022/08/17 09:07:47;;;;;;;;;;;;;;;36.24;22.88;98634.38;4515530;31;34420;-82
2022/08/17 09:10:14;;;;;;;;;;;;;;;36.67;22.08;98630.00;4515544;31;33721;-81
2022/08/17 09:12:41;;;;;;;;;;;;;;;36.12;22.93;98630.25;4515340;31;34002;-81
2022/08/17 09:15:08;;;;;;;;;;;;;;;36.20;22.32;98637.56;4515335;31;34398;-81
2022/08/17 09:17:46;;;;;;;;;;;;;;;36.64;22.01;98624.91;4515241;31;34089;-83
2022/08/17 09:20:42;;;;;;;;;;;;;;;36.26;22.06;98635.09;4514125;31;33080;-83
2022/08/17 09:23:36;;;;;;;;;;;;;;;36.08;22.56;98642.34;4504219;31;33994;-81
2022/08/17 09:26:16;;;;;;;;;;;;;;;36.40;22.91;98638.22;4515162;31;34276;-82
2022/08/17 09:28:45;;;;;;;;;;;;;;;36.04;23.19;98651.78;4510338;31;34089;-81
2022/08/17 09:31:18;;;;;;;;;;;;;;;35.92;23.00;98636.78;4502394;31;33096;-81
2022/08/17 09:33:47;;;;;;;;;;;;;;;35.62;23.59;98638.00;4513457;31;34208;-80
2022/08/17 09:36:20;;;;;;;;;;;;;;;35.77;23.60;98636.47;4515529;31;34383;-81
2022/08/17 09:39:06;;;;;;;;;;;;;;;35.93;23.41;98638.47;4498115;31;35149;-82
2022/08/17 09:41:37;;;;;;;;;;;;;;;36.31;22.72;98634.63;4500385;31;33299;-82
2022/08/17 09:44:34;;;;;;;;;;;;;;;35.79;22.95;98639.84;4506728;31;34863;-81
2022/08/17 09:47:06;;;;;;;;;;;;;;;35.69;23.23;98633.72;4509037;31;35293;-81
2022/08/17 09:49:41;;;;;;;;;;;;;;;35.83;23.19;98634.00;4497024;31;33870;-80
2022/08/17 09:52:10;;;;;;;;;;;;;;;36.06;22.33;98630.84;4497231;31;33299;-82
2022/08/17 09:54:41;;;;;;;;;;;;;;;35.58;22.89;98629.37;4496004;31;34256;-82
2022/08/17 09:57:21;;;;;;;;;;;;;;;36.51;22.58;98624.50;4496304;31;34473;-82
2022/08/17 10:00:16;;;;;;;;;;;;;;;36.09;22.21;98630.56;4511412;31;34311;-82
2022/08/17 10:02:52;;;;;;;;;;;;;;;36.14;22.30;98633.66;4514480;31;34482;-82
2022/08/17 10:05:26;;;;;;;;;;;;;;;37.02;20.86;98630.91;4514420;31;34039;-83
2022/08/17 10:07:56;;;;;;;;;;;;;;;36.40;21.59;98639.06;4512999;31;34393;-82
2022/08/17 10:10:24;;;;;;;;;;;;;;;37.24;21.27;98633.00;4497271;31;34224;-82
2022/08/17 10:13:04;;;;;;;;;;;;;;;36.12;21.59;98630.25;4499420;31;33065;-82
2022/08/17 10:15:51;;;;;;;;;;;;;;;36.84;21.71;98630.09;4497929;31;34174;-81
2022/08/17 10:18:23;;;;;;;;;;;;;;;36.37;21.38;98631.28;4496875;31;34479;-82
2022/08/17 10:26:48;;;;;;;;;;;;;;;36.81;20.97;98631.25;4511568;31;35075;-80
2022/08/17 10:29:26;;;;;;;;;;;;;;;37.39;20.87;98622.41;4503345;31;34382;-83
2022/08/17 10:32:03;;;;;;;;;;;;;;;37.36;20.56;98621.91;4512792;31;34254;-82
2022/08/17 10:34:34;;;;;;;;;;;;;;;36.66;21.17;98606.69;4512505;31;33985;-82
2022/08/17 10:37:25;;;;;;;;;;;;;;;36.81;20.94;98616.91;4507159;31;34216;-82
2022/08/17 10:39:56;;;;;;;;;;;;;;;37.06;20.82;98617.91;4496576;31;35412;-81
2022/08/17 10:42:27;;;;;;;;;;;;;;;36.97;21.19;98615.16;4498339;31;33942;-82
2022/08/17 10:45:04;;;;;;;;;;;;;;;36.85;21.55;98616.41;4496923;31;33446;-82
2022/08/17 10:47:50;;;;;;;;;;;;;;;36.80;21.20;98613.34;4507166;31;35134;-81
2022/08/17 10:50:43;;;;;;;;;;;;;;;37.61;19.86;98623.66;4513402;31;35207;-80
2022/08/17 10:53:25;;;;;;;;;;;;;;;37.49;20.69;98625.00;4494768;31;35199;-80
2022/08/17 10:56:13;;;;;;;;;;;;;;;37.38;20.66;98619.88;4495184;31;34554;-81
2022/08/17 10:58:54;;;;;;;;;;;;;;;38.25;19.99;98604.97;4497746;31;35016;-83
2022/08/17 11:01:21;;;;;;;;;;;;;;;37.81;20.32;98608.00;4496088;31;34386;-81
2022/08/17 11:03:52;;;;;;;;;;;;;;;38.19;18.86;98605.66;4512408;31;34115;-82
2022/08/17 11:06:20;;;;;;;;;;;;;;;38.44;19.12;98620.03;4512972;31;33567;-81
2022/08/17 11:08:50;;;;;;;;;;;;;;;38.04;19.78;98600.09;4513982;31;34214;-83
2022/08/17 11:11:36;;;;;;;;;;;;;;;38.75;18.67;98590.31;4513206;31;34397;-83
2022/08/17 11:14:20;;;;;;;;;;;;;;;38.37;19.54;98600.06;4512462;31;34670;-83
2022/08/17 11:17:06;;;;;;;;;;;;;;;38.26;19.82;98612.06;4512086;31;34352;-82
2022/08/17 11:19:42;;;;;;;;;;;;;;;36.98;21.62;98610.62;4513430;31;33887;-81
2022/08/17 11:22:22;;;;;;;;;;;;;;;37.74;21.10;98613.22;4512954;31;34490;-82
2022/08/17 11:24:50;;;;;;;;;;;;;;;36.58;22.10;98598.53;4512237;31;34936;-82
2022/08/17 11:27:25;;;;;;;;;;;;;;;37.44;22.05;98601.16;4510899;31;33252;-82
2022/08/17 11:30:00;;;;;;;;;;;;;;;36.80;22.00;98596.31;4512340;31;35015;-81
2022/08/17 11:32:30;;;;;;;;;;;;;;;37.80;21.85;98594.62;4513061;31;34487;-80
2022/08/17 11:35:10;;;;;;;;;;;;;;;37.25;22.34;98591.44;4512412;31;33609;-81
2022/08/17 11:37:58;;;;;;;;;;;;;;;37.52;21.12;98585.97;4512129;31;33844;-82
2022/08/17 11:40:27;;;;;;;;;;;;;;;37.57;20.70;98589.84;4513087;31;34899;-84
2022/08/17 11:42:58;;;;;;;;;;;;;;;37.36;21.25;98586.75;4510243;31;35100;-82
2022/08/17 11:45:32;;;;;;;;;;;;;;;37.29;21.10;98591.13;4498340;31;34497;-81
2022/08/17 11:53:44;;;;;;;;;;;;;;;37.96;20.17;98579.28;4513290;31;34305;-81
2022/08/17 11:56:30;;;;;;;;;;;;;;;36.98;20.89;98578.19;4514251;31;34819;-81
2022/08/17 11:58:59;;;;;;;;;;;;;;;37.17;20.95;98577.91;4515207;31;33803;-81
2022/08/17 12:01:27;;;;;;;;;;;;;;;37.02;21.11;98566.03;4513999;31;34161;-81
2022/08/17 12:04:15;;;;;;;;;;;;;;;38.02;20.91;98572.31;4513833;31;34257;-83
2022/08/17 12:06:49;;;;;;;;;;;;;;;37.48;21.28;98569.22;4515604;31;35035;-82
2022/08/17 12:09:18;;;;;;;;;;;;;;;37.84;19.92;98567.03;4513653;31;33274;-81
2022/08/17 12:11:56;;;;;;;;;;;;;;;37.42;19.48;98562.63;4513324;31;35151;-82
2022/08/17 12:14:44;;;;;;;;;;;;;;;36.99;20.81;98555.56;4512734;31;35558;-82
2022/08/17 12:17:32;;;;;;;;;;;;;;;37.32;19.63;98561.06;4513479;31;34062;-84
2022/08/17 12:20:11;;;;;;;;;;;;;;;37.83;19.46;98548.28;4514789;31;32787;-82
2022/08/17 12:22:59;;;;;;;;;;;;;;;38.18;18.69;98552.50;4513139;31;33075;-81
2022/08/17 12:25:39;;;;;;;;;;;;;;;39.12;17.83;98559.03;4501603;31;35487;-83
2022/08/17 12:28:25;;;;;;;;;;;;;;;38.88;17.54;98551.88;4498970;31;33879;-81
2022/08/17 12:30:53;;;;;;;;;;;;;;;38.77;17.42;98547.66;4499698;31;33440;-81
2022/08/17 12:33:20;;;;;;;;;;;;;;;38.54;17.58;98542.16;4498382;31;33947;-81
2022/08/17 12:36:02;;;;;;;;;;;;;;;38.51;17.50;98549.78;4498378;31;34394;-82
2022/08/17 12:38:33;;;;;;;;;;;;;;;38.35;17.76;98551.50;4505279;31;34162;-80
2022/08/17 12:41:25;;;;;;;;;;;;;;;38.30;16.86;98544.87;4514366;31;33900;-81
2022/08/17 12:43:55;;;;;;;;;;;;;;;38.49;18.01;98541.81;4515698;31;33568;-81
2022/08/17 12:46:22;;;;;;;;;;;;;;;38.89;17.60;98548.16;4515459;31;35329;-82
2022/08/17 12:48:51;;;;;;;;;;;;;;;38.08;18.10;98555.41;4515174;31;34126;-82
2022/08/17 12:51:27;;;;;;;;;;;;;;;38.70;17.57;98549.38;4514372;31;34190;-82
2022/08/17 12:53:55;;;;;;;;;;;;;;;38.24;18.14;98540.16;4487961;31;856720;-82
2022/08/17 12:56:22;;;;;;;;;;;;;;;38.68;17.28;98543.28;4515435;31;34326;-81
2022/08/17 12:58:52;;;;;;;;;;;;;;;39.06;15.96;98548.91;4515143;31;34939;-81
2022/08/17 13:01:20;;;;;;;;;;;;;;;39.38;16.32;98548.75;4514419;31;34102;-81
2022/08/17 13:03:48;;;;;;;;;;;;;;;39.05;16.27;98550.75;4513635;31;34318;-81
2022/08/17 13:06:27;;;;;;;;;;;;;;;38.45;16.35;98545.87;4515414;31;34444;-80
2022/08/17 13:08:54;;;;;;;;;;;;;;;39.16;14.93;98544.94;4515110;31;35736;-82
2022/08/17 13:11:23;;;;;;;;;;;;;;;38.90;16.42;98539.81;4515317;31;33624;-81
2022/08/17 13:13:53;;;;;;;;;;;;;;;38.16;17.14;98536.47;4515560;31;34363;-82
2022/08/17 13:16:28;;;;;;;;;;;;;;;39.02;16.63;98543.00;4514162;31;35171;-83
2022/08/17 13:19:05;;;;;;;;;;;;;;;38.47;16.93;98533.03;4513285;31;34927;-88
2022/08/17 13:21:33;;;;;;;;;;;;;;;38.01;17.21;98548.16;4515578;31;33472;-81
2022/08/17 13:24:06;;;;;;;;;;;;;;;38.53;16.39;98543.19;4515150;31;34977;-82
2022/08/17 13:26:37;;;;;;;;;;;;;;;38.13;16.89;98542.22;4514512;31;34051;-82
2022/08/17 13:29:06;;;;;;;;;;;;;;;38.73;16.05;98534.66;4507700;31;35147;-81
2022/08/17 13:31:38;;;;;;;;;;;;;;;38.57;16.09;98530.97;4502942;31;33106;-82
2022/08/17 13:34:22;;;;;;;;;;;;;;;38.80;16.45;98527.53;4501000;31;34772;-82
2022/08/17 13:37:12;;;;;;;;;;;;;;;39.36;16.16;98525.53;4514960;31;34513;-80
2022/08/17 13:39:40;;;;;;;;;;;;;;;39.40;15.82;98529.56;4514828;31;35130;-81
2022/08/17 13:42:26;;;;;;;;;;;;;;;38.89;16.92;98521.03;4514842;31;33143;-83
2022/08/17 13:44:53;;;;;;;;;;;;;;;38.72;16.49;98539.22;4515276;31;33689;-81
2022/08/17 13:47:21;;;;;;;;;;;;;;;38.02;17.25;98529.03;4514990;31;34495;-81